Time,TemperatureF,DewpointF,PressureIn,WindDirection,WindDirectionDegrees,WindSpeedMPH,WindSpeedGustMPH,Humidity,HourlyPrecipIn,Conditions,Clouds,dailyrainin,SoftwareType,DateUTC
2013-05-08 00:02:00,62.0,50.0,-100.00,ENE,60,0.0,0.0,64,0.00,,,-99.99,,2013-05-08 04:02:00,
2013-05-08 00:13:00,62.0,50.0,-100.00,ENE,60,0.0,0.0,64,0.00,,,-99.99,,2013-05-08 04:13:00,
2013-05-08 00:23:00,62.0,50.0,-100.00,ENE,75,1.0,2.0,65,0.00,,,-99.99,,2013-05-08 04:23:00,
2013-05-08 00:33:00,61.0,50.0,-100.00,ENE,65,0.0,2.0,66,0.00,,,-99.99,,2013-05-08 04:33:00,
2013-05-08 00:43:00,60.0,50.0,-100.00,ENE,65,0.0,0.0,68,0.00,,,-99.99,,2013-05-08 04:43:00,
2013-05-08 00:52:00,60.0,50.0,-100.00,ENE,65,0.0,0.0,68,0.00,,,-99.99,,2013-05-08 04:52:00,
2013-05-08 01:02:00,61.0,50.0,-100.00,East,90,0.0,1.0,66,0.00,,,-99.99,,2013-05-08 05:02:00,
2013-05-08 01:12:00,60.0,50.0,-100.00,East,90,0.0,1.0,69,0.00,,,-99.99,,2013-05-08 05:12:00,
2013-05-08 01:22:00,59.0,50.0,-100.00,NW,320,0.0,1.0,72,0.00,,,-99.99,,2013-05-08 05:22:00,
2013-05-08 01:32:00,58.0,50.0,-100.00,NNW,340,0.0,1.0,74,0.00,,,-99.99,,2013-05-08 05:32:00,
2013-05-08 01:42:00,59.0,51.0,-100.00,NW,320,1.0,2.0,74,0.00,,,-99.99,,2013-05-08 05:42:00,
2013-05-08 01:52:00,59.0,51.0,-100.00,NNW,335,0.0,2.0,73,0.00,,,-99.99,,2013-05-08 05:52:00,
2013-05-08 02:02:00,59.0,50.0,-100.00,NW,325,0.0,1.0,73,0.00,,,-99.99,,2013-05-08 06:02:00,
2013-05-08 02:12:00,59.0,50.0,-100.00,NW,325,0.0,1.0,73,0.00,,,-99.99,,2013-05-08 06:12:00,
2013-05-08 02:21:00,59.0,51.0,-100.00,SE,130,0.0,0.0,75,0.00,,,-99.99,,2013-05-08 06:21:00,
2013-05-08 02:32:00,59.0,51.0,-100.00,SE,130,0.0,0.0,75,0.00,,,-99.99,,2013-05-08 06:32:00,
2013-05-08 02:42:00,57.0,50.0,-100.00,NNW,335,0.0,0.0,78,0.00,,,-99.99,,2013-05-08 06:42:00,
2013-05-08 02:52:00,57.0,50.0,-100.00,WNW,290,0.0,0.0,79,0.00,,,-99.99,,2013-05-08 06:52:00,
2013-05-08 03:02:00,56.0,50.0,-100.00,NW,310,1.0,1.0,79,0.00,,,-99.99,,2013-05-08 07:02:00,
2013-05-08 03:11:00,56.0,50.0,-100.00,NW,315,0.0,1.0,79,0.00,,,-99.99,,2013-05-08 07:11:00,
2013-05-08 03:21:00,56.0,50.0,-100.00,NNW,330,0.0,0.0,79,0.00,,,-99.99,,2013-05-08 07:21:00,
2013-05-08 03:32:00,56.0,50.0,-100.00,North,0,0.0,1.0,80,0.00,,,-99.99,,2013-05-08 07:32:00,
2013-05-08 03:42:00,57.0,50.0,-100.00,North,350,0.0,1.0,77,0.00,,,-99.99,,2013-05-08 07:42:00,
2013-05-08 03:52:00,57.0,49.0,-100.00,North,355,0.0,2.0,76,0.00,,,-99.99,,2013-05-08 07:52:00,
2013-05-08 04:02:00,56.0,49.0,-100.00,North,5,0.0,1.0,77,0.00,,,-99.99,,2013-05-08 08:02:00,
2013-05-08 04:12:00,56.0,49.0,-100.00,North,5,0.0,1.0,77,0.00,,,-99.99,,2013-05-08 08:12:00,
2013-05-08 04:21:00,56.0,49.0,-100.00,North,0,0.0,0.0,77,0.00,,,-99.99,,2013-05-08 08:21:00,
2013-05-08 04:32:00,55.0,49.0,-100.00,NNE,15,0.0,2.0,78,0.00,,,-99.99,,2013-05-08 08:32:00,
2013-05-08 04:42:00,55.0,49.0,-100.00,North,5,0.0,0.0,79,0.00,,,-99.99,,2013-05-08 08:42:00,
2013-05-08 04:51:00,55.0,49.0,-100.00,NNW,335,0.0,0.0,79,0.00,,,-99.99,,2013-05-08 08:51:00,
2013-05-08 05:02:00,55.0,49.0,-100.00,North,0,0.0,1.0,80,0.00,,,-99.99,,2013-05-08 09:02:00,
2013-05-08 05:11:00,55.0,49.0,-100.00,North,10,0.0,0.0,80,0.00,,,-99.99,,2013-05-08 09:11:00,
2013-05-08 05:21:00,55.0,49.0,-100.00,NNW,335,0.0,1.0,80,0.00,,,-99.99,,2013-05-08 09:21:00,
2013-05-08 05:32:00,55.0,49.0,-100.00,NNW,345,0.0,2.0,80,0.00,,,-99.99,,2013-05-08 09:32:00,
2013-05-08 05:42:00,55.0,49.0,-100.00,North,10,0.0,1.0,80,0.00,,,-99.99,,2013-05-08 09:42:00,
2013-05-08 05:52:00,55.0,49.0,-100.00,NNW,330,0.0,0.0,79,0.00,,,-99.99,,2013-05-08 09:52:00,
2013-05-08 06:02:00,56.0,49.0,-100.00,NNW,340,0.0,1.0,78,0.00,,,-99.99,,2013-05-08 10:02:00,
2013-05-08 06:12:00,56.0,49.0,-100.00,NNW,340,0.0,2.0,79,0.00,,,-99.99,,2013-05-08 10:12:00,
2013-05-08 06:22:00,56.0,49.0,-100.00,North,0,1.0,3.0,78,0.00,,,-99.99,,2013-05-08 10:22:00,
2013-05-08 06:33:00,56.0,49.0,-100.00,NNW,335,0.0,2.0,78,0.00,,,-99.99,,2013-05-08 10:33:00,
2013-05-08 06:42:00,56.0,49.0,-100.00,NNW,340,0.0,2.0,78,0.00,,,-99.99,,2013-05-08 10:42:00,
2013-05-08 06:52:00,56.0,49.0,-100.00,NNW,330,0.0,2.0,78,0.00,,,-99.99,,2013-05-08 10:52:00,
2013-05-08 07:02:00,56.0,49.0,-100.00,North,355,1.0,3.0,78,0.00,,,-99.99,,2013-05-08 11:02:00,
2013-05-08 07:11:00,56.0,49.0,-100.00,NNW,340,1.0,4.0,78,0.00,,,-99.99,,2013-05-08 11:11:00,
2013-05-08 07:22:00,56.0,49.0,-100.00,NNW,340,1.0,6.0,78,0.00,,,-99.99,,2013-05-08 11:22:00,
2013-05-08 07:32:00,56.0,49.0,-100.00,NNW,335,0.0,4.0,77,0.00,,,-99.99,,2013-05-08 11:32:00,
2013-05-08 07:42:00,56.0,49.0,-100.00,North,10,0.0,4.0,77,0.00,,,-99.99,,2013-05-08 11:42:00,
2013-05-08 07:52:00,56.0,49.0,-100.00,NNW,330,2.0,4.0,77,0.00,,,-99.99,,2013-05-08 11:52:00,
2013-05-08 08:02:00,57.0,49.0,-100.00,NNW,345,0.0,3.0,77,0.00,,,-99.99,,2013-05-08 12:02:00,
2013-05-08 08:11:00,57.0,49.0,-100.00,North,355,0.0,5.0,75,0.00,,,-99.99,,2013-05-08 12:11:00,
2013-05-08 08:21:00,57.0,49.0,-100.00,North,0,0.0,3.0,74,0.00,,,-99.99,,2013-05-08 12:21:00,
2013-05-08 08:32:00,57.0,49.0,-100.00,NNW,345,0.0,3.0,73,0.00,,,-99.99,,2013-05-08 12:32:00,
2013-05-08 08:42:00,58.0,49.0,-100.00,North,0,0.0,4.0,72,0.00,,,-99.99,,2013-05-08 12:42:00,
2013-05-08 08:51:00,58.0,49.0,-100.00,NNE,15,0.0,2.0,71,0.00,,,-99.99,,2013-05-08 12:51:00,
2013-05-08 09:01:00,59.0,50.0,-100.00,North,10,0.0,3.0,71,0.00,,,-99.99,,2013-05-08 13:01:00,
2013-05-08 09:12:00,60.0,50.0,-100.00,NNE,15,0.0,1.0,69,0.00,,,-99.99,,2013-05-08 13:12:00,
2013-05-08 09:21:00,61.0,51.0,-100.00,NNE,25,0.0,1.0,68,0.00,,,-99.99,,2013-05-08 13:21:00,
2013-05-08 09:32:00,62.0,51.0,-100.00,North,0,0.0,0.0,66,0.00,,,-99.99,,2013-05-08 13:32:00,
2013-05-08 09:42:00,63.0,50.0,-100.00,NNE,15,0.0,3.0,63,0.00,,,-99.99,,2013-05-08 13:42:00,
2013-05-08 09:52:00,64.0,51.0,-100.00,North,355,0.0,2.0,62,0.00,,,-99.99,,2013-05-08 13:52:00,
2013-05-08 10:02:00,64.0,51.0,-100.00,NNE,15,0.0,2.0,62,0.00,,,-99.99,,2013-05-08 14:02:00,
2013-05-08 10:11:00,65.0,51.0,-100.00,NNE,25,1.0,2.0,60,0.00,,,-99.99,,2013-05-08 14:11:00,
2013-05-08 10:21:00,65.0,53.0,-100.00,NNE,15,0.0,3.0,64,0.00,,,-99.99,,2013-05-08 14:21:00,
2013-05-08 10:32:00,66.0,53.0,-100.00,NE,40,0.0,3.0,62,0.00,,,-99.99,,2013-05-08 14:32:00,
2013-05-08 10:42:00,67.0,53.0,-100.00,NE,40,1.0,3.0,59,0.00,,,-99.99,,2013-05-08 14:42:00,
2013-05-08 10:52:00,68.0,54.0,-100.00,NE,35,0.0,4.0,60,0.00,,,-99.99,,2013-05-08 14:52:00,
2013-05-08 11:02:00,67.0,52.0,-100.00,NNE,25,1.0,3.0,58,0.00,,,-99.99,,2013-05-08 15:02:00,
2013-05-08 11:11:00,67.0,51.0,-100.00,NNE,25,1.0,3.0,55,0.00,,,-99.99,,2013-05-08 15:11:00,
2013-05-08 11:21:00,68.0,54.0,-100.00,NNE,25,0.0,2.0,60,0.00,,,-99.99,,2013-05-08 15:21:00,
2013-05-08 11:33:00,68.0,51.0,-100.00,North,5,1.0,4.0,54,0.00,,,-99.99,,2013-05-08 15:33:00,
2013-05-08 11:42:00,70.0,52.0,-100.00,North,10,0.0,3.0,51,0.00,,,-99.99,,2013-05-08 15:42:00,
2013-05-08 11:52:00,70.0,52.0,-100.00,North,10,0.0,3.0,51,0.00,,,-99.99,,2013-05-08 15:52:00,
2013-05-08 12:03:00,69.0,52.0,-100.00,North,5,0.0,6.0,54,0.00,,,-99.99,,2013-05-08 16:03:00,
2013-05-08 12:12:00,68.0,51.0,-100.00,North,0,2.0,6.0,53,0.00,,,-99.99,,2013-05-08 16:12:00,
2013-05-08 12:23:00,68.0,51.0,-100.00,North,0,2.0,6.0,53,0.00,,,-99.99,,2013-05-08 16:23:00,
2013-05-08 12:33:00,69.0,50.0,-100.00,North,5,1.0,3.0,50,0.00,,,-99.99,,2013-05-08 16:33:00,
2013-05-08 12:42:00,69.0,51.0,-100.00,North,0,1.0,3.0,52,0.00,,,-99.99,,2013-05-08 16:42:00,
2013-05-08 12:52:00,71.0,50.0,-100.00,North,355,1.0,5.0,48,0.00,,,-99.99,,2013-05-08 16:52:00,
2013-05-08 13:02:00,71.0,49.0,-100.00,North,0,1.0,5.0,46,0.00,,,-99.99,,2013-05-08 17:02:00,
2013-05-08 13:12:00,71.0,50.0,-100.00,North,5,0.0,4.0,46,0.00,,,-99.99,,2013-05-08 17:12:00,
2013-05-08 13:22:00,73.0,48.0,-100.00,North,355,0.0,3.0,42,0.00,,,-99.99,,2013-05-08 17:22:00,
2013-05-08 13:32:00,73.0,48.0,-100.00,North,355,0.0,3.0,42,0.00,,,-99.99,,2013-05-08 17:32:00,
2013-05-08 13:41:00,73.0,48.0,-100.00,North,355,0.0,3.0,42,0.00,,,-99.99,,2013-05-08 17:41:00,
2013-05-08 13:52:00,73.0,50.0,-100.00,North,0,1.0,4.0,44,0.00,,,-99.99,,2013-05-08 17:52:00,
2013-05-08 14:02:00,73.0,48.0,-100.00,North,0,0.0,3.0,40,0.00,,,-99.99,,2013-05-08 18:02:00,
2013-05-08 14:12:00,75.0,50.0,-100.00,NNE,25,1.0,4.0,41,0.00,,,-99.99,,2013-05-08 18:12:00,
2013-05-08 14:21:00,76.0,54.0,-100.00,NNE,20,1.0,4.0,46,0.00,,,-99.99,,2013-05-08 18:21:00,
2013-05-08 14:32:00,75.0,47.0,-100.00,North,10,1.0,5.0,37,0.00,,,-99.99,,2013-05-08 18:32:00,
2013-05-08 14:42:00,77.0,49.0,-100.00,NE,35,0.0,6.0,37,0.00,,,-99.99,,2013-05-08 18:42:00,
2013-05-08 14:52:00,76.0,48.0,-100.00,NNW,335,1.0,4.0,37,0.00,,,-99.99,,2013-05-08 18:52:00,
2013-05-08 15:01:00,78.0,52.0,-100.00,NE,40,1.0,5.0,39,0.00,,,-99.99,,2013-05-08 19:01:00,
2013-05-08 15:11:00,77.0,47.0,-100.00,East,90,2.0,9.0,35,0.00,,,-99.99,,2013-05-08 19:11:00,
2013-05-08 15:22:00,77.0,48.0,-100.00,NE,55,2.0,6.0,35,0.00,,,-99.99,,2013-05-08 19:22:00,
2013-05-08 15:32:00,78.0,50.0,-100.00,NE,40,3.0,6.0,37,0.00,,,-99.99,,2013-05-08 19:32:00,
2013-05-08 15:42:00,77.0,47.0,-100.00,East,100,2.0,6.0,34,0.00,,,-99.99,,2013-05-08 19:42:00,
2013-05-08 15:52:00,76.0,48.0,-100.00,NNE,15,2.0,6.0,37,0.00,,,-99.99,,2013-05-08 19:52:00,
2013-05-08 16:02:00,76.0,49.0,-100.00,NE,50,3.0,7.0,38,0.00,,,-99.99,,2013-05-08 20:02:00,
2013-05-08 16:11:00,76.0,48.0,-100.00,North,10,1.0,6.0,36,0.00,,,-99.99,,2013-05-08 20:11:00,
2013-05-08 16:22:00,77.0,51.0,-100.00,NE,40,1.0,4.0,39,0.00,,,-99.99,,2013-05-08 20:22:00,
2013-05-08 16:32:00,76.0,49.0,-100.00,NE,40,1.0,4.0,38,0.00,,,-99.99,,2013-05-08 20:32:00,
2013-05-08 16:42:00,76.0,50.0,-100.00,NNE,30,1.0,4.0,40,0.00,,,-99.99,,2013-05-08 20:42:00,
2013-05-08 16:52:00,75.0,49.0,-100.00,NNW,340,0.0,4.0,39,0.00,,,-99.99,,2013-05-08 20:52:00,
2013-05-08 17:01:00,75.0,51.0,-100.00,NNE,30,0.0,3.0,42,0.00,,,-99.99,,2013-05-08 21:01:00,
2013-05-08 17:12:00,75.0,51.0,-100.00,NE,35,0.0,1.0,42,0.00,,,-99.99,,2013-05-08 21:12:00,
2013-05-08 17:21:00,74.0,50.0,-100.00,NNE,25,0.0,1.0,42,0.00,,,-99.99,,2013-05-08 21:21:00,
2013-05-08 17:33:00,74.0,51.0,-100.00,NNE,30,0.0,3.0,43,0.00,,,-99.99,,2013-05-08 21:33:00,
2013-05-08 17:43:00,78.0,50.0,-100.00,North,0,0.0,3.0,37,0.00,,,-99.99,,2013-05-08 21:43:00,
2013-05-08 17:52:00,79.0,49.0,-100.00,NNE,15,1.0,4.0,34,0.00,,,-99.99,,2013-05-08 21:52:00,
2013-05-08 18:03:00,78.0,50.0,-100.00,North,0,1.0,4.0,38,0.00,,,-99.99,,2013-05-08 22:03:00,
2013-05-08 18:12:00,78.0,49.0,-100.00,NNW,345,1.0,4.0,36,0.00,,,-99.99,,2013-05-08 22:12:00,
2013-05-08 18:22:00,77.0,49.0,-100.00,NW,320,3.0,7.0,38,0.00,,,-99.99,,2013-05-08 22:22:00,
2013-05-08 18:33:00,76.0,48.0,-100.00,North,350,0.0,8.0,38,0.00,,,-99.99,,2013-05-08 22:33:00,
2013-05-08 18:42:00,75.0,48.0,-100.00,NNW,340,0.0,6.0,38,0.00,,,-99.99,,2013-05-08 22:42:00,
2013-05-08 18:52:00,74.0,48.0,-100.00,North,0,1.0,4.0,39,0.00,,,-99.99,,2013-05-08 22:52:00,
2013-05-08 19:02:00,73.0,51.0,-100.00,West,270,3.0,7.0,46,0.00,,,-99.99,,2013-05-08 23:02:00,
2013-05-08 19:12:00,72.0,50.0,-100.00,NW,325,1.0,4.0,44,0.00,,,-99.99,,2013-05-08 23:12:00,
2013-05-08 19:22:00,72.0,50.0,-100.00,NW,315,1.0,5.0,46,0.00,,,-99.99,,2013-05-08 23:22:00,
2013-05-08 19:42:00,70.0,49.0,-100.00,NNW,335,4.0,14.0,47,0.00,,,-99.99,,2013-05-08 23:42:00,
2013-05-08 19:52:00,69.0,49.0,-100.00,NW,320,5.0,12.0,49,0.00,,,-99.99,,2013-05-08 23:52:00,
2013-05-08 20:02:00,69.0,50.0,-100.00,WNW,295,1.0,9.0,51,0.00,,,-99.99,,2013-05-09 00:02:00,
2013-05-08 20:12:00,68.0,50.0,-100.00,South,170,1.0,6.0,51,0.00,,,-99.99,,2013-05-09 00:12:00,
2013-05-08 20:21:00,68.0,49.0,-100.00,ESE,115,0.0,5.0,49,0.00,,,-99.99,,2013-05-09 00:21:00,
2013-05-08 20:32:00,68.0,49.0,-100.00,South,180,0.0,2.0,48,0.00,,,-99.99,,2013-05-09 00:32:00,
2013-05-08 20:42:00,68.0,49.0,-100.00,SSE,150,0.0,1.0,50,0.00,,,-99.99,,2013-05-09 00:42:00,
2013-05-08 20:52:00,68.0,49.0,-100.00,SSE,150,0.0,1.0,50,0.00,,,-99.99,,2013-05-09 00:52:00,
2013-05-08 21:01:00,67.0,50.0,-100.00,East,85,1.0,2.0,54,0.00,,,-99.99,,2013-05-09 01:01:00,
2013-05-08 21:12:00,67.0,51.0,-100.00,East,100,1.0,2.0,57,0.00,,,-99.99,,2013-05-09 01:12:00,
2013-05-08 21:22:00,66.0,51.0,-100.00,SE,130,0.0,3.0,57,0.00,,,-99.99,,2013-05-09 01:22:00,
2013-05-08 21:32:00,66.0,52.0,-100.00,West,275,1.0,4.0,59,0.00,,,-99.99,,2013-05-09 01:32:00,
2013-05-08 21:42:00,65.0,51.0,-100.00,WNW,300,1.0,4.0,58,0.00,,,-99.99,,2013-05-09 01:42:00,
2013-05-08 21:52:00,65.0,51.0,-100.00,SSW,200,0.0,3.0,59,0.00,,,-99.99,,2013-05-09 01:52:00,
2013-05-08 22:02:00,65.0,51.0,-100.00,NW,325,1.0,3.0,59,0.00,,,-99.99,,2013-05-09 02:02:00,
2013-05-08 22:12:00,65.0,52.0,-100.00,NW,305,1.0,3.0,61,0.00,,,-99.99,,2013-05-09 02:12:00,
2013-05-08 22:22:00,65.0,52.0,-100.00,NW,310,0.0,3.0,62,0.00,,,-99.99,,2013-05-09 02:22:00,
2013-05-08 22:33:00,65.0,52.0,-100.00,NW,305,0.0,2.0,62,0.00,,,-99.99,,2013-05-09 02:33:00,
2013-05-08 22:42:00,65.0,52.0,-100.00,NW,305,0.0,2.0,62,0.00,,,-99.99,,2013-05-09 02:42:00,
2013-05-08 22:52:00,65.0,52.0,-100.00,NW,305,0.0,2.0,62,0.00,,,-99.99,,2013-05-09 02:52:00,
2013-05-08 23:02:00,64.0,52.0,-100.00,WNW,285,0.0,0.0,64,0.00,,,-99.99,,2013-05-09 03:02:00,
2013-05-08 23:11:00,63.0,52.0,-100.00,SW,230,0.0,1.0,66,0.00,,,-99.99,,2013-05-09 03:11:00,
2013-05-08 23:21:00,63.0,52.0,-100.00,WSW,245,0.0,2.0,68,0.00,,,-99.99,,2013-05-09 03:21:00,
2013-05-08 23:33:00,63.0,53.0,-100.00,North,10,0.0,1.0,69,0.00,,,-99.99,,2013-05-09 03:33:00,
2013-05-08 23:43:00,62.0,52.0,-100.00,NNW,335,0.0,2.0,71,0.00,,,-99.99,,2013-05-09 03:43:00,
2013-05-08 23:53:00,61.0,53.0,-100.00,ENE,60,0.0,0.0,73,0.00,,,-99.99,,2013-05-09 03:53:00,